sensor_id;sensor_type;location;lat;lon;timestamp;temperature;humidity
51982;DHT22;37998;53.416;6.730;2023-09-12T00:01:42;20.60;99.90
51982;DHT22;37998;53.416;6.730;2023-09-12T00:04:08;20.30;99.90
51982;DHT22;37998;53.416;6.730;2023-09-12T00:06:37;20.30;99.90
51982;DHT22;37998;53.416;6.730;2023-09-12T00:09:03;20.30;99.90
51982;DHT22;37998;53.416;6.730;2023-09-12T00:11:31;20.30;99.90
51982;DHT22;37998;53.416;6.730;2023-09-12T00:13:58;20.30;99.90
51982;DHT22;37998;53.416;6.730;2023-09-12T00:16:25;20.20;99.90
51982;DHT22;37998;53.416;6.730;2023-09-12T00:18:51;20.30;99.90
51982;DHT22;37998;53.416;6.730;2023-09-12T00:21:17;20.30;99.90
51982;DHT22;37998;53.416;6.730;2023-09-12T00:23:43;20.30;99.90
51982;DHT22;37998;53.416;6.730;2023-09-12T00:26:08;20.30;99.90
51982;DHT22;37998;53.416;6.730;2023-09-12T00:28:35;20.30;99.90
51982;DHT22;37998;53.416;6.730;2023-09-12T00:31:00;20.20;99.90
51982;DHT22;37998;53.416;6.730;2023-09-12T00:33:27;20.20;99.90
51982;DHT22;37998;53.416;6.730;2023-09-12T00:35:53;20.20;99.90
51982;DHT22;37998;53.416;6.730;2023-09-12T00:38:19;20.10;99.90
51982;DHT22;37998;53.416;6.730;2023-09-12T00:40:45;20.10;99.90
51982;DHT22;37998;53.416;6.730;2023-09-12T00:43:11;20.10;99.90
51982;DHT22;37998;53.416;6.730;2023-09-12T00:45:37;20.10;99.90
51982;DHT22;37998;53.416;6.730;2023-09-12T00:48:04;20.20;99.90
51982;DHT22;37998;53.416;6.730;2023-09-12T00:50:31;20.20;99.90
51982;DHT22;37998;53.416;6.730;2023-09-12T00:52:59;20.10;99.90
51982;DHT22;37998;53.416;6.730;2023-09-12T00:55:25;20.10;99.90
51982;DHT22;37998;53.416;6.730;2023-09-12T00:57:52;20.00;99.90
51982;DHT22;37998;53.416;6.730;2023-09-12T01:00:19;20.10;99.90
51982;DHT22;37998;53.416;6.730;2023-09-12T01:02:46;20.00;99.90
51982;DHT22;37998;53.416;6.730;2023-09-12T01:05:13;20.00;99.90
51982;DHT22;37998;53.416;6.730;2023-09-12T01:07:42;19.90;99.90
51982;DHT22;37998;53.416;6.730;2023-09-12T01:10:09;19.90;99.90
51982;DHT22;37998;53.416;6.730;2023-09-12T01:12:36;19.90;99.90
51982;DHT22;37998;53.416;6.730;2023-09-12T01:15:02;19.90;99.90
51982;DHT22;37998;53.416;6.730;2023-09-12T01:17:31;19.80;99.90
51982;DHT22;37998;53.416;6.730;2023-09-12T01:19:58;19.80;99.90
51982;DHT22;37998;53.416;6.730;2023-09-12T01:27:51;19.80;99.90
51982;DHT22;37998;53.416;6.730;2023-09-12T01:30:21;19.80;99.90
51982;DHT22;37998;53.416;6.730;2023-09-12T01:32:48;19.80;99.90
51982;DHT22;37998;53.416;6.730;2023-09-12T01:35:15;19.80;99.90
51982;DHT22;37998;53.416;6.730;2023-09-12T01:37:41;19.80;99.90
51982;DHT22;37998;53.416;6.730;2023-09-12T01:40:07;19.70;99.90
51982;DHT22;37998;53.416;6.730;2023-09-12T01:42:45;19.70;99.90
51982;DHT22;37998;53.416;6.730;2023-09-12T01:45:15;19.70;99.90
51982;DHT22;37998;53.416;6.730;2023-09-12T01:47:42;19.60;99.90
51982;DHT22;37998;53.416;6.730;2023-09-12T01:50:10;19.70;99.90
51982;DHT22;37998;53.416;6.730;2023-09-12T01:52:40;19.60;99.90
51982;DHT22;37998;53.416;6.730;2023-09-12T01:55:07;19.60;99.90
51982;DHT22;37998;53.416;6.730;2023-09-12T01:57:36;19.60;99.90
51982;DHT22;37998;53.416;6.730;2023-09-12T02:00:03;19.60;99.90
51982;DHT22;37998;53.416;6.730;2023-09-12T02:02:31;19.60;99.90
51982;DHT22;37998;53.416;6.730;2023-09-12T02:05:20;19.60;99.90
51982;DHT22;37998;53.416;6.730;2023-09-12T02:07:47;19.60;99.90
51982;DHT22;37998;53.416;6.730;2023-09-12T02:10:13;19.50;99.90
51982;DHT22;37998;53.416;6.730;2023-09-12T02:12:40;19.50;99.90
51982;DHT22;37998;53.416;6.730;2023-09-12T02:15:07;19.50;99.90
51982;DHT22;37998;53.416;6.730;2023-09-12T02:17:33;19.40;99.90
51982;DHT22;37998;53.416;6.730;2023-09-12T02:19:59;19.40;99.90
51982;DHT22;37998;53.416;6.730;2023-09-12T02:22:25;19.30;99.90
51982;DHT22;37998;53.416;6.730;2023-09-12T02:24:51;19.10;99.90
51982;DHT22;37998;53.416;6.730;2023-09-12T02:27:18;19.30;99.90
51982;DHT22;37998;53.416;6.730;2023-09-12T02:29:44;19.30;99.90
51982;DHT22;37998;53.416;6.730;2023-09-12T02:32:10;19.40;99.90
51982;DHT22;37998;53.416;6.730;2023-09-12T02:34:36;19.30;99.90
51982;DHT22;37998;53.416;6.730;2023-09-12T02:37:02;19.30;99.90
51982;DHT22;37998;53.416;6.730;2023-09-12T02:39:28;19.30;99.90
51982;DHT22;37998;53.416;6.730;2023-09-12T02:41:54;19.40;99.90
51982;DHT22;37998;53.416;6.730;2023-09-12T02:44:20;19.40;99.90
51982;DHT22;37998;53.416;6.730;2023-09-12T02:46:46;19.40;99.90
51982;DHT22;37998;53.416;6.730;2023-09-12T02:49:14;19.30;99.90
51982;DHT22;37998;53.416;6.730;2023-09-12T02:51:41;19.30;99.90
51982;DHT22;37998;53.416;6.730;2023-09-12T02:54:07;19.10;99.90
51982;DHT22;37998;53.416;6.730;2023-09-12T02:56:34;19.10;99.90
51982;DHT22;37998;53.416;6.730;2023-09-12T02:59:00;19.00;99.90
51982;DHT22;37998;53.416;6.730;2023-09-12T03:01:25;19.00;99.90
51982;DHT22;37998;53.416;6.730;2023-09-12T03:03:54;19.00;99.90
51982;DHT22;37998;53.416;6.730;2023-09-12T03:06:20;19.00;99.90
51982;DHT22;37998;53.416;6.730;2023-09-12T03:08:47;19.00;99.90
51982;DHT22;37998;53.416;6.730;2023-09-12T03:11:13;19.00;99.90
51982;DHT22;37998;53.416;6.730;2023-09-12T03:13:40;18.90;99.90
51982;DHT22;37998;53.416;6.730;2023-09-12T03:16:14;18.90;99.90
51982;DHT22;37998;53.416;6.730;2023-09-12T03:18:40;18.90;99.90
51982;DHT22;37998;53.416;6.730;2023-09-12T03:21:06;18.90;99.90
51982;DHT22;37998;53.416;6.730;2023-09-12T03:23:32;18.90;99.90
51982;DHT22;37998;53.416;6.730;2023-09-12T03:26:06;18.80;99.90
51982;DHT22;37998;53.416;6.730;2023-09-12T03:28:33;18.90;99.90
51982;DHT22;37998;53.416;6.730;2023-09-12T03:31:10;18.90;99.90
51982;DHT22;37998;53.416;6.730;2023-09-12T03:33:38;18.90;99.90
51982;DHT22;37998;53.416;6.730;2023-09-12T03:36:05;18.90;99.90
51982;DHT22;37998;53.416;6.730;2023-09-12T03:38:33;18.90;99.90
51982;DHT22;37998;53.416;6.730;2023-09-12T03:40:59;18.80;99.90
51982;DHT22;37998;53.416;6.730;2023-09-12T03:43:25;18.80;99.90
51982;DHT22;37998;53.416;6.730;2023-09-12T03:45:51;18.80;99.90
51982;DHT22;37998;53.416;6.730;2023-09-12T03:48:17;18.80;99.90
51982;DHT22;37998;53.416;6.730;2023-09-12T03:50:45;18.80;99.90
51982;DHT22;37998;53.416;6.730;2023-09-12T03:53:11;18.70;99.90
51982;DHT22;37998;53.416;6.730;2023-09-12T03:55:37;18.70;99.90
51982;DHT22;37998;53.416;6.730;2023-09-12T03:58:04;18.60;99.90
51982;DHT22;37998;53.416;6.730;2023-09-12T04:00:30;18.60;99.90
51982;DHT22;37998;53.416;6.730;2023-09-12T04:02:55;18.60;99.90
51982;DHT22;37998;53.416;6.730;2023-09-12T04:05:22;18.50;99.90
51982;DHT22;37998;53.416;6.730;2023-09-12T04:07:48;18.50;99.90
51982;DHT22;37998;53.416;6.730;2023-09-12T04:10:14;18.50;99.90
51982;DHT22;37998;53.416;6.730;2023-09-12T04:12:40;18.50;99.90
51982;DHT22;37998;53.416;6.730;2023-09-12T04:15:06;18.50;99.90
51982;DHT22;37998;53.416;6.730;2023-09-12T04:17:32;18.60;99.90
51982;DHT22;37998;53.416;6.730;2023-09-12T04:19:58;18.60;99.90
51982;DHT22;37998;53.416;6.730;2023-09-12T04:22:24;18.60;99.90
51982;DHT22;37998;53.416;6.730;2023-09-12T04:24:50;18.60;99.90
51982;DHT22;37998;53.416;6.730;2023-09-12T04:27:16;18.70;99.90
51982;DHT22;37998;53.416;6.730;2023-09-12T04:29:42;18.70;99.90
51982;DHT22;37998;53.416;6.730;2023-09-12T04:32:08;18.70;99.90
51982;DHT22;37998;53.416;6.730;2023-09-12T04:34:34;18.80;99.90
51982;DHT22;37998;53.416;6.730;2023-09-12T04:37:01;18.80;99.90
51982;DHT22;37998;53.416;6.730;2023-09-12T04:39:29;18.80;99.90
51982;DHT22;37998;53.416;6.730;2023-09-12T04:41:56;18.80;99.90
51982;DHT22;37998;53.416;6.730;2023-09-12T04:44:22;18.70;99.90
51982;DHT22;37998;53.416;6.730;2023-09-12T04:46:48;18.70;99.90
51982;DHT22;37998;53.416;6.730;2023-09-12T04:49:14;18.70;99.90
51982;DHT22;37998;53.416;6.730;2023-09-12T04:51:40;18.70;99.90
51982;DHT22;37998;53.416;6.730;2023-09-12T04:54:08;18.70;99.90
51982;DHT22;37998;53.416;6.730;2023-09-12T04:56:34;18.80;99.90
51982;DHT22;37998;53.416;6.730;2023-09-12T04:59:00;18.70;99.90
51982;DHT22;37998;53.416;6.730;2023-09-12T05:01:26;18.70;99.90
51982;DHT22;37998;53.416;6.730;2023-09-12T05:03:52;18.70;99.90
51982;DHT22;37998;53.416;6.730;2023-09-12T05:06:18;18.70;99.90
51982;DHT22;37998;53.416;6.730;2023-09-12T05:08:44;18.60;99.90
51982;DHT22;37998;53.416;6.730;2023-09-12T05:11:10;18.60;99.90
51982;DHT22;37998;53.416;6.730;2023-09-12T05:13:36;18.60;99.90
51982;DHT22;37998;53.416;6.730;2023-09-12T05:16:02;18.60;99.90
51982;DHT22;37998;53.416;6.730;2023-09-12T05:18:28;18.60;99.90
51982;DHT22;37998;53.416;6.730;2023-09-12T05:20:54;18.50;99.90
51982;DHT22;37998;53.416;6.730;2023-09-12T05:23:20;18.50;99.90
51982;DHT22;37998;53.416;6.730;2023-09-12T05:25:46;18.50;99.90
51982;DHT22;37998;53.416;6.730;2023-09-12T05:28:12;18.50;99.90
51982;DHT22;37998;53.416;6.730;2023-09-12T05:30:43;18.50;99.90
51982;DHT22;37998;53.416;6.730;2023-09-12T05:33:09;18.60;99.90
51982;DHT22;37998;53.416;6.730;2023-09-12T05:35:35;18.60;99.90
51982;DHT22;37998;53.416;6.730;2023-09-12T05:38:03;18.50;99.90
51982;DHT22;37998;53.416;6.730;2023-09-12T05:40:29;18.50;99.90
51982;DHT22;37998;53.416;6.730;2023-09-12T05:42:55;18.50;99.90
51982;DHT22;37998;53.416;6.730;2023-09-12T05:45:21;18.40;99.90
51982;DHT22;37998;53.416;6.730;2023-09-12T05:47:47;18.40;99.90
51982;DHT22;37998;53.416;6.730;2023-09-12T05:50:14;18.30;99.90
51982;DHT22;37998;53.416;6.730;2023-09-12T05:52:40;18.30;99.90
51982;DHT22;37998;53.416;6.730;2023-09-12T05:55:08;18.40;99.90
51982;DHT22;37998;53.416;6.730;2023-09-12T05:57:34;18.40;99.90
51982;DHT22;37998;53.416;6.730;2023-09-12T06:00:00;18.50;99.90
51982;DHT22;37998;53.416;6.730;2023-09-12T06:02:27;18.50;99.90
51982;DHT22;37998;53.416;6.730;2023-09-12T06:04:53;18.50;99.90
51982;DHT22;37998;53.416;6.730;2023-09-12T06:07:19;18.60;99.90
51982;DHT22;37998;53.416;6.730;2023-09-12T06:09:45;18.60;99.90
51982;DHT22;37998;53.416;6.730;2023-09-12T06:12:11;18.60;99.90
51982;DHT22;37998;53.416;6.730;2023-09-12T06:14:37;18.60;99.90
51982;DHT22;37998;53.416;6.730;2023-09-12T06:17:03;18.70;99.90
51982;DHT22;37998;53.416;6.730;2023-09-12T06:19:29;18.70;99.90
51982;DHT22;37998;53.416;6.730;2023-09-12T06:21:56;18.70;99.90
51982;DHT22;37998;53.416;6.730;2023-09-12T06:24:22;18.80;99.90
51982;DHT22;37998;53.416;6.730;2023-09-12T06:26:49;18.80;99.90
51982;DHT22;37998;53.416;6.730;2023-09-12T06:29:15;18.90;99.90
51982;DHT22;37998;53.416;6.730;2023-09-12T06:31:42;18.90;99.90
51982;DHT22;37998;53.416;6.730;2023-09-12T06:34:08;18.90;99.90
51982;DHT22;37998;53.416;6.730;2023-09-12T06:36:34;19.00;99.90
51982;DHT22;37998;53.416;6.730;2023-09-12T06:39:00;19.00;99.90
51982;DHT22;37998;53.416;6.730;2023-09-12T06:41:27;19.10;99.90
51982;DHT22;37998;53.416;6.730;2023-09-12T06:43:54;19.20;99.90
51982;DHT22;37998;53.416;6.730;2023-09-12T06:46:22;19.20;99.90
51982;DHT22;37998;53.416;6.730;2023-09-12T06:48:48;19.20;99.90
51982;DHT22;37998;53.416;6.730;2023-09-12T06:51:16;19.30;99.90
51982;DHT22;37998;53.416;6.730;2023-09-12T06:53:42;19.40;99.90
51982;DHT22;37998;53.416;6.730;2023-09-12T06:56:09;19.40;99.90
51982;DHT22;37998;53.416;6.730;2023-09-12T06:58:35;19.50;99.90
51982;DHT22;37998;53.416;6.730;2023-09-12T07:01:05;19.50;99.90
51982;DHT22;37998;53.416;6.730;2023-09-12T07:03:51;19.60;99.90
51982;DHT22;37998;53.416;6.730;2023-09-12T07:06:23;19.60;99.90
51982;DHT22;37998;53.416;6.730;2023-09-12T07:08:51;19.70;99.90
51982;DHT22;37998;53.416;6.730;2023-09-12T07:11:17;19.70;99.90
51982;DHT22;37998;53.416;6.730;2023-09-12T07:13:45;19.70;99.90
51982;DHT22;37998;53.416;6.730;2023-09-12T07:16:11;19.80;99.90
51982;DHT22;37998;53.416;6.730;2023-09-12T07:18:37;19.80;99.90
51982;DHT22;37998;53.416;6.730;2023-09-12T07:21:04;19.80;99.90
51982;DHT22;37998;53.416;6.730;2023-09-12T07:23:31;19.90;99.90
51982;DHT22;37998;53.416;6.730;2023-09-12T07:25:58;20.00;99.90
51982;DHT22;37998;53.416;6.730;2023-09-12T07:28:25;20.00;99.90
51982;DHT22;37998;53.416;6.730;2023-09-12T07:30:51;20.00;99.90
51982;DHT22;37998;53.416;6.730;2023-09-12T07:33:17;19.90;99.90
51982;DHT22;37998;53.416;6.730;2023-09-12T07:35:43;19.70;99.90
51982;DHT22;37998;53.416;6.730;2023-09-12T07:38:09;19.70;99.90
51982;DHT22;37998;53.416;6.730;2023-09-12T07:40:35;19.60;99.90
51982;DHT22;37998;53.416;6.730;2023-09-12T07:43:01;19.60;99.90
51982;DHT22;37998;53.416;6.730;2023-09-12T07:45:28;19.60;99.90
51982;DHT22;37998;53.416;6.730;2023-09-12T07:47:55;19.50;99.90
51982;DHT22;37998;53.416;6.730;2023-09-12T07:50:21;19.40;99.90
51982;DHT22;37998;53.416;6.730;2023-09-12T07:52:47;19.40;99.90
51982;DHT22;37998;53.416;6.730;2023-09-12T07:55:13;19.30;99.90
51982;DHT22;37998;53.416;6.730;2023-09-12T07:57:38;19.20;99.90
51982;DHT22;37998;53.416;6.730;2023-09-12T08:00:05;19.20;99.90
51982;DHT22;37998;53.416;6.730;2023-09-12T08:02:37;19.20;99.90
51982;DHT22;37998;53.416;6.730;2023-09-12T08:05:04;19.20;99.90
51982;DHT22;37998;53.416;6.730;2023-09-12T08:07:30;19.20;99.90
51982;DHT22;37998;53.416;6.730;2023-09-12T08:09:57;19.20;99.90
51982;DHT22;37998;53.416;6.730;2023-09-12T08:12:25;19.20;99.90
51982;DHT22;37998;53.416;6.730;2023-09-12T08:14:52;19.30;99.90
51982;DHT22;37998;53.416;6.730;2023-09-12T08:17:19;19.30;99.90
51982;DHT22;37998;53.416;6.730;2023-09-12T08:19:45;19.40;99.90
51982;DHT22;37998;53.416;6.730;2023-09-12T08:22:11;19.40;99.90
51982;DHT22;37998;53.416;6.730;2023-09-12T08:24:38;19.50;99.90
51982;DHT22;37998;53.416;6.730;2023-09-12T08:27:05;19.60;99.90
51982;DHT22;37998;53.416;6.730;2023-09-12T08:29:32;19.60;99.90
51982;DHT22;37998;53.416;6.730;2023-09-12T08:31:59;19.60;99.90
51982;DHT22;37998;53.416;6.730;2023-09-12T08:34:25;19.60;99.90
51982;DHT22;37998;53.416;6.730;2023-09-12T08:36:51;19.60;99.90
51982;DHT22;37998;53.416;6.730;2023-09-12T08:39:23;19.70;99.90
51982;DHT22;37998;53.416;6.730;2023-09-12T08:41:50;19.70;99.90
51982;DHT22;37998;53.416;6.730;2023-09-12T08:44:16;19.70;99.90
51982;DHT22;37998;53.416;6.730;2023-09-12T08:46:44;19.70;99.90
51982;DHT22;37998;53.416;6.730;2023-09-12T08:49:11;19.80;99.90
51982;DHT22;37998;53.416;6.730;2023-09-12T08:51:40;19.80;99.90
51982;DHT22;37998;53.416;6.730;2023-09-12T08:54:08;19.80;99.90
51982;DHT22;37998;53.416;6.730;2023-09-12T08:56:40;19.80;99.90
51982;DHT22;37998;53.416;6.730;2023-09-12T08:59:10;19.90;99.90
51982;DHT22;37998;53.416;6.730;2023-09-12T09:01:36;19.90;99.90
51982;DHT22;37998;53.416;6.730;2023-09-12T09:04:03;20.00;99.90
51982;DHT22;37998;53.416;6.730;2023-09-12T09:06:31;20.00;99.90
51982;DHT22;37998;53.416;6.730;2023-09-12T09:09:05;20.10;99.90
51982;DHT22;37998;53.416;6.730;2023-09-12T09:11:31;20.10;99.90
51982;DHT22;37998;53.416;6.730;2023-09-12T09:13:57;20.20;99.90
51982;DHT22;37998;53.416;6.730;2023-09-12T09:16:23;20.20;99.90
51982;DHT22;37998;53.416;6.730;2023-09-12T09:19:00;20.20;99.90
51982;DHT22;37998;53.416;6.730;2023-09-12T09:21:28;20.20;99.90
51982;DHT22;37998;53.416;6.730;2023-09-12T09:24:00;20.20;99.90
51982;DHT22;37998;53.416;6.730;2023-09-12T09:26:44;20.30;99.90
51982;DHT22;37998;53.416;6.730;2023-09-12T09:29:20;20.30;99.90
51982;DHT22;37998;53.416;6.730;2023-09-12T09:31:51;20.30;99.90
51982;DHT22;37998;53.416;6.730;2023-09-12T09:34:18;20.40;99.90
51982;DHT22;37998;53.416;6.730;2023-09-12T09:36:49;20.40;99.90
51982;DHT22;37998;53.416;6.730;2023-09-12T09:39:17;20.50;99.90
51982;DHT22;37998;53.416;6.730;2023-09-12T09:41:50;20.60;99.90
51982;DHT22;37998;53.416;6.730;2023-09-12T09:44:17;20.60;99.90
51982;DHT22;37998;53.416;6.730;2023-09-12T09:46:44;20.60;99.90
51982;DHT22;37998;53.416;6.730;2023-09-12T09:49:11;20.70;99.90
51982;DHT22;37998;53.416;6.730;2023-09-12T09:51:43;20.70;99.90
51982;DHT22;37998;53.416;6.730;2023-09-12T09:54:13;20.70;99.90
51982;DHT22;37998;53.416;6.730;2023-09-12T09:56:50;20.70;99.90
51982;DHT22;37998;53.416;6.730;2023-09-12T09:59:17;20.80;99.90
51982;DHT22;37998;53.416;6.730;2023-09-12T10:01:45;20.90;99.90
51982;DHT22;37998;53.416;6.730;2023-09-12T10:04:11;21.00;99.90
51982;DHT22;37998;53.416;6.730;2023-09-12T10:06:38;21.10;99.90
51982;DHT22;37998;53.416;6.730;2023-09-12T10:09:12;21.20;99.90
51982;DHT22;37998;53.416;6.730;2023-09-12T10:11:39;21.30;99.90
51982;DHT22;37998;53.416;6.730;2023-09-12T10:14:06;21.40;99.90
51982;DHT22;37998;53.416;6.730;2023-09-12T10:16:35;21.50;99.90
51982;DHT22;37998;53.416;6.730;2023-09-12T10:19:38;21.60;99.90
51982;DHT22;37998;53.416;6.730;2023-09-12T10:24:39;21.80;99.90
51982;DHT22;37998;53.416;6.730;2023-09-12T10:27:06;21.90;99.90
51982;DHT22;37998;53.416;6.730;2023-09-12T10:29:32;22.00;99.90
51982;DHT22;37998;53.416;6.730;2023-09-12T10:31:59;22.10;99.90
51982;DHT22;37998;53.416;6.730;2023-09-12T10:34:26;22.30;99.90
51982;DHT22;37998;53.416;6.730;2023-09-12T10:36:55;22.40;99.90
51982;DHT22;37998;53.416;6.730;2023-09-12T10:39:24;22.40;99.90
51982;DHT22;37998;53.416;6.730;2023-09-12T10:41:54;22.50;99.90
51982;DHT22;37998;53.416;6.730;2023-09-12T10:44:20;22.60;99.90
51982;DHT22;37998;53.416;6.730;2023-09-12T10:46:47;22.60;99.90
51982;DHT22;37998;53.416;6.730;2023-09-12T10:49:15;22.60;99.90
51982;DHT22;37998;53.416;6.730;2023-09-12T10:51:43;22.50;99.90
51982;DHT22;37998;53.416;6.730;2023-09-12T10:54:16;22.50;99.90
51982;DHT22;37998;53.416;6.730;2023-09-12T10:57:05;22.60;99.90
51982;DHT22;37998;53.416;6.730;2023-09-12T10:59:35;23.10;99.90
51982;DHT22;37998;53.416;6.730;2023-09-12T11:02:31;22.60;99.90
51982;DHT22;37998;53.416;6.730;2023-09-12T11:05:02;22.70;99.90
51982;DHT22;37998;53.416;6.730;2023-09-12T11:07:50;22.70;99.90
51982;DHT22;37998;53.416;6.730;2023-09-12T11:12:43;22.80;99.90
51982;DHT22;37998;53.416;6.730;2023-09-12T11:15:09;22.80;99.90
51982;DHT22;37998;53.416;6.730;2023-09-12T11:17:49;22.90;99.90
51982;DHT22;37998;53.416;6.730;2023-09-12T11:20:16;23.00;99.90
51982;DHT22;37998;53.416;6.730;2023-09-12T11:22:46;23.20;99.90
51982;DHT22;37998;53.416;6.730;2023-09-12T11:25:16;23.30;99.90
51982;DHT22;37998;53.416;6.730;2023-09-12T11:28:02;23.30;99.90
51982;DHT22;37998;53.416;6.730;2023-09-12T11:30:29;23.30;99.90
51982;DHT22;37998;53.416;6.730;2023-09-12T11:32:57;23.30;99.90
51982;DHT22;37998;53.416;6.730;2023-09-12T11:35:28;23.30;99.90
51982;DHT22;37998;53.416;6.730;2023-09-12T11:37:58;23.40;99.90
51982;DHT22;37998;53.416;6.730;2023-09-12T11:43:01;23.40;99.90
51982;DHT22;37998;53.416;6.730;2023-09-12T11:45:27;23.40;99.90
51982;DHT22;37998;53.416;6.730;2023-09-12T11:47:56;23.50;99.90
51982;DHT22;37998;53.416;6.730;2023-09-12T11:50:31;23.70;99.90
51982;DHT22;37998;53.416;6.730;2023-09-12T11:53:04;23.70;99.90
51982;DHT22;37998;53.416;6.730;2023-09-12T11:55:35;23.90;99.90
51982;DHT22;37998;53.416;6.730;2023-09-12T11:58:02;24.10;99.90
51982;DHT22;37998;53.416;6.730;2023-09-12T12:00:29;24.30;99.90
51982;DHT22;37998;53.416;6.730;2023-09-12T12:02:55;24.40;99.90
51982;DHT22;37998;53.416;6.730;2023-09-12T12:05:22;24.50;99.90
51982;DHT22;37998;53.416;6.730;2023-09-12T12:07:48;24.50;99.90
51982;DHT22;37998;53.416;6.730;2023-09-12T12:10:17;24.50;99.90
51982;DHT22;37998;53.416;6.730;2023-09-12T12:12:46;24.50;99.90
51982;DHT22;37998;53.416;6.730;2023-09-12T12:15:12;24.20;99.90
51982;DHT22;37998;53.416;6.730;2023-09-12T12:17:41;23.80;99.90
51982;DHT22;37998;53.416;6.730;2023-09-12T12:20:11;23.20;99.90
51982;DHT22;37998;53.416;6.730;2023-09-12T12:22:38;22.50;99.90
51982;DHT22;37998;53.416;6.730;2023-09-12T12:25:09;21.90;99.90
51982;DHT22;37998;53.416;6.730;2023-09-12T12:27:36;21.50;99.90
51982;DHT22;37998;53.416;6.730;2023-09-12T12:30:07;21.10;99.90
51982;DHT22;37998;53.416;6.730;2023-09-12T12:32:34;20.80;99.90
51982;DHT22;37998;53.416;6.730;2023-09-12T12:35:00;20.70;99.90
51982;DHT22;37998;53.416;6.730;2023-09-12T12:37:29;20.60;99.90
51982;DHT22;37998;53.416;6.730;2023-09-12T12:39:56;20.50;99.90
51982;DHT22;37998;53.416;6.730;2023-09-12T12:42:22;20.60;99.90
51982;DHT22;37998;53.416;6.730;2023-09-12T12:44:56;20.60;99.90
51982;DHT22;37998;53.416;6.730;2023-09-12T12:47:22;20.50;99.90
51982;DHT22;37998;53.416;6.730;2023-09-12T12:49:52;20.50;99.90
51982;DHT22;37998;53.416;6.730;2023-09-12T12:52:25;20.50;99.90
51982;DHT22;37998;53.416;6.730;2023-09-12T12:54:51;20.50;99.90
51982;DHT22;37998;53.416;6.730;2023-09-12T12:57:20;20.50;99.90
51982;DHT22;37998;53.416;6.730;2023-09-12T12:59:48;20.60;99.90
51982;DHT22;37998;53.416;6.730;2023-09-12T13:02:15;20.60;99.90
51982;DHT22;37998;53.416;6.730;2023-09-12T13:04:41;20.60;99.90
51982;DHT22;37998;53.416;6.730;2023-09-12T13:07:07;20.70;99.90
51982;DHT22;37998;53.416;6.730;2023-09-12T13:09:33;20.70;99.90
51982;DHT22;37998;53.416;6.730;2023-09-12T13:11:59;20.70;99.90
51982;DHT22;37998;53.416;6.730;2023-09-12T13:14:25;20.80;99.90
51982;DHT22;37998;53.416;6.730;2023-09-12T13:16:59;20.90;99.90
51982;DHT22;37998;53.416;6.730;2023-09-12T13:19:26;21.00;99.90
51982;DHT22;37998;53.416;6.730;2023-09-12T13:21:52;21.00;99.90
51982;DHT22;37998;53.416;6.730;2023-09-12T13:24:18;21.10;99.90
51982;DHT22;37998;53.416;6.730;2023-09-12T13:26:44;21.10;99.90
51982;DHT22;37998;53.416;6.730;2023-09-12T13:29:10;21.00;99.90
51982;DHT22;37998;53.416;6.730;2023-09-12T13:31:36;21.10;99.90
51982;DHT22;37998;53.416;6.730;2023-09-12T13:34:02;21.10;99.90
51982;DHT22;37998;53.416;6.730;2023-09-12T13:36:28;21.10;99.90
51982;DHT22;37998;53.416;6.730;2023-09-12T13:38:54;21.10;99.90
51982;DHT22;37998;53.416;6.730;2023-09-12T13:41:21;21.20;99.90
51982;DHT22;37998;53.416;6.730;2023-09-12T13:43:48;21.30;99.90
51982;DHT22;37998;53.416;6.730;2023-09-12T13:46:14;21.30;99.90
51982;DHT22;37998;53.416;6.730;2023-09-12T13:48:42;21.40;99.90
51982;DHT22;37998;53.416;6.730;2023-09-12T13:51:08;21.40;99.90
51982;DHT22;37998;53.416;6.730;2023-09-12T13:53:33;21.40;99.90
51982;DHT22;37998;53.416;6.730;2023-09-12T13:55:59;21.40;99.90
51982;DHT22;37998;53.416;6.730;2023-09-12T13:58:27;21.50;99.90
51982;DHT22;37998;53.416;6.730;2023-09-12T14:00:53;21.50;99.90
51982;DHT22;37998;53.416;6.730;2023-09-12T14:03:18;21.60;99.90
51982;DHT22;37998;53.416;6.730;2023-09-12T14:05:45;21.60;99.90
51982;DHT22;37998;53.416;6.730;2023-09-12T14:08:11;21.70;99.90
51982;DHT22;37998;53.416;6.730;2023-09-12T14:10:37;21.70;99.90
51982;DHT22;37998;53.416;6.730;2023-09-12T14:13:03;21.70;99.90
51982;DHT22;37998;53.416;6.730;2023-09-12T14:15:29;21.80;99.90
51982;DHT22;37998;53.416;6.730;2023-09-12T14:17:55;21.90;99.90
51982;DHT22;37998;53.416;6.730;2023-09-12T14:20:21;21.90;99.90
51982;DHT22;37998;53.416;6.730;2023-09-12T14:22:46;21.90;99.90
51982;DHT22;37998;53.416;6.730;2023-09-12T14:25:13;22.00;99.90
51982;DHT22;37998;53.416;6.730;2023-09-12T14:27:43;21.90;99.90
51982;DHT22;37998;53.416;6.730;2023-09-12T14:30:10;22.00;99.90
51982;DHT22;37998;53.416;6.730;2023-09-12T14:32:39;22.00;99.90
51982;DHT22;37998;53.416;6.730;2023-09-12T14:35:05;22.10;99.90
51982;DHT22;37998;53.416;6.730;2023-09-12T14:37:31;22.20;99.90
51982;DHT22;37998;53.416;6.730;2023-09-12T14:39:57;22.20;99.90
51982;DHT22;37998;53.416;6.730;2023-09-12T14:42:23;22.20;99.90
51982;DHT22;37998;53.416;6.730;2023-09-12T14:44:49;22.20;99.90
51982;DHT22;37998;53.416;6.730;2023-09-12T14:47:15;22.30;99.90
51982;DHT22;37998;53.416;6.730;2023-09-12T14:49:41;22.20;99.90
51982;DHT22;37998;53.416;6.730;2023-09-12T14:52:07;22.10;99.90
51982;DHT22;37998;53.416;6.730;2023-09-12T14:54:33;22.10;99.90
51982;DHT22;37998;53.416;6.730;2023-09-12T14:56:59;22.00;99.90
51982;DHT22;37998;53.416;6.730;2023-09-12T14:59:25;22.10;99.90
51982;DHT22;37998;53.416;6.730;2023-09-12T15:01:51;22.10;99.90
51982;DHT22;37998;53.416;6.730;2023-09-12T15:04:17;22.10;99.90
51982;DHT22;37998;53.416;6.730;2023-09-12T15:06:43;22.10;99.90
51982;DHT22;37998;53.416;6.730;2023-09-12T15:09:09;22.10;99.90
51982;DHT22;37998;53.416;6.730;2023-09-12T15:11:35;22.00;99.90
51982;DHT22;37998;53.416;6.730;2023-09-12T15:14:01;22.00;99.90
51982;DHT22;37998;53.416;6.730;2023-09-12T15:16:27;21.90;99.90
51982;DHT22;37998;53.416;6.730;2023-09-12T15:18:56;21.90;99.90
51982;DHT22;37998;53.416;6.730;2023-09-12T15:21:22;21.90;99.90
51982;DHT22;37998;53.416;6.730;2023-09-12T15:23:48;21.90;99.90
51982;DHT22;37998;53.416;6.730;2023-09-12T15:26:14;21.90;99.90
51982;DHT22;37998;53.416;6.730;2023-09-12T15:28:40;21.90;99.90
51982;DHT22;37998;53.416;6.730;2023-09-12T15:31:06;21.80;99.90
51982;DHT22;37998;53.416;6.730;2023-09-12T15:33:32;21.70;99.90
51982;DHT22;37998;53.416;6.730;2023-09-12T15:35:58;21.70;99.90
51982;DHT22;37998;53.416;6.730;2023-09-12T15:38:24;21.70;99.90
51982;DHT22;37998;53.416;6.730;2023-09-12T15:40:50;21.70;99.90
51982;DHT22;37998;53.416;6.730;2023-09-12T15:43:16;21.70;99.90
51982;DHT22;37998;53.416;6.730;2023-09-12T15:45:42;21.70;99.90